Time;durP1;ratioP1;P1;durP2;ratioP2;P2;SDS_P1;SDS_P2;PMS_P1;PMS_P2;Temp;Humidity;BMP_temperature;BMP_pressure;BME280_temperature;BME280_humidity;BME280_pressure;Samples;Min_cycle;Max_cycle;Signal;HPM_P1;HPM_P2
2022/10/01 00:01:27;;;;;;;24.30;20.30;;;;;;;12.35;73.19;100206.53;103245;1279;96176;-69
2022/10/01 00:03:55;;;;;;;28.00;20.80;;;;;;;12.37;73.10;100209.29;103268;1279;138833;-67
2022/10/01 00:06:24;;;;;;;27.00;21.40;;;;;;;12.37;73.35;100216.25;103281;1279;99364;-69
2022/10/01 00:08:51;;;;;;;25.50;20.60;;;;;;;12.31;73.52;100213.27;103184;1279;139167;-65
2022/10/01 00:11:24;;;;;;;25.40;20.50;;;;;;;12.30;73.76;100210.65;103225;1279;96135;-67
2022/10/01 00:13:53;;;;;;;25.90;20.40;;;;;;;12.30;73.81;100211.55;103277;1279;95437;-68
2022/10/01 00:16:25;;;;;;;26.60;21.50;;;;;;;12.25;73.83;100212.27;103261;1279;139809;-66
2022/10/01 00:18:53;;;;;;;28.90;21.80;;;;;;;12.26;73.85;100217.57;103448;1279;101088;-67
2022/10/01 00:21:25;;;;;;;28.10;21.50;;;;;;;12.29;73.69;100221.00;103156;1279;138794;-68
2022/10/01 00:23:59;;;;;;;25.90;20.80;;;;;;;12.28;73.87;100221.77;103428;1278;95869;-66
2022/10/01 00:26:30;;;;;;;25.20;19.60;;;;;;;12.29;73.94;100221.91;103349;1279;95190;-67
2022/10/01 00:29:00;;;;;;;27.40;22.10;;;;;;;12.33;73.83;100217.83;103205;1279;139000;-67
2022/10/01 00:31:29;;;;;;;27.50;21.80;;;;;;;12.36;73.62;100218.07;103621;1279;99384;-66
2022/10/01 00:33:59;;;;;;;26.40;21.50;;;;;;;12.32;73.55;100218.05;103197;1279;141650;-67
2022/10/01 00:36:27;;;;;;;25.50;20.40;;;;;;;12.23;73.97;100221.93;103386;1279;95671;-66
2022/10/01 00:38:59;;;;;;;24.70;20.40;;;;;;;12.18;74.33;100226.57;103230;1281;139149;-68
2022/10/01 00:41:31;;;;;;;26.50;21.70;;;;;;;12.24;74.26;100232.05;103429;1280;108941;-67
2022/10/01 00:44:02;;;;;;;29.90;22.40;;;;;;;12.30;73.95;100236.83;103477;1281;99892;-67
2022/10/01 00:46:44;;;;;;;26.30;21.30;;;;;;;12.37;73.62;100233.71;103224;1279;138960;-68
2022/10/01 00:49:19;;;;;;;25.80;20.90;;;;;;;12.39;73.55;100230.98;103344;1279;96224;-68
2022/10/01 00:51:53;;;;;;;26.70;21.20;;;;;;;12.36;73.77;100227.72;103223;1279;139466;-67
2022/10/01 00:54:23;;;;;;;27.90;22.60;;;;;;;12.31;73.86;100224.50;103297;1279;109909;-67
2022/10/01 00:56:55;;;;;;;28.40;23.90;;;;;;;12.26;73.91;100220.59;103177;1279;139403;-67
2022/10/01 00:59:25;;;;;;;31.40;25.10;;;;;;;12.24;74.14;100216.93;103330;1279;108923;-68
2022/10/01 01:01:52;;;;;;;30.80;25.00;;;;;;;12.21;74.25;100212.57;103490;1280;96186;-62
2022/10/01 01:04:21;;;;;;;31.50;25.20;;;;;;;12.20;74.29;100208.13;103194;1280;139374;-62
2022/10/01 01:06:57;;;;;;;32.30;26.80;;;;;;;12.15;74.06;100207.80;103367;1279;109742;-63
2022/10/01 01:09:34;;;;;;;33.50;26.10;;;;;;;12.06;74.33;100206.69;103308;1280;138824;-64
2022/10/01 01:12:05;;;;;;;31.00;24.90;;;;;;;12.02;74.67;100211.45;103269;1279;108809;-61
2022/10/01 01:15:11;;;;;;;30.90;24.30;;;;;;;12.09;74.68;100213.72;103243;1279;139937;-65
2022/10/01 01:18:16;;;;;;;32.80;26.80;;;;;;;12.15;74.81;100212.44;102824;1281;95547;-63
2022/10/01 01:21:07;;;;;;;31.60;25.70;;;;;;;12.15;74.56;100216.52;103151;1279;138824;-62
2022/10/01 01:24:11;;;;;;;32.50;26.40;;;;;;;12.18;74.27;100213.58;103135;1280;99700;-62
2022/10/01 01:27:05;;;;;;;35.70;28.50;;;;;;;12.23;74.15;100215.16;103188;1280;139498;-60
2022/10/01 01:29:51;;;;;;;41.80;32.90;;;;;;;12.31;74.09;100218.96;103298;1280;96384;-62
2022/10/01 01:32:29;;;;;;;40.60;33.00;;;;;;;12.37;73.50;100221.23;103264;1279;96203;-62
2022/10/01 01:35:01;;;;;;;38.80;31.60;;;;;;;12.39;73.29;100223.66;103211;1280;139519;-64
2022/10/01 01:37:36;;;;;;;41.30;33.40;;;;;;;12.40;73.25;100223.27;103234;1279;100126;-62
2022/10/01 01:40:10;;;;;;;39.40;33.40;;;;;;;12.39;73.34;100221.35;103021;1281;139050;-64
2022/10/01 01:42:40;;;;;;;43.30;36.10;;;;;;;12.32;73.76;100223.57;103309;1280;96007;-64
2022/10/01 01:45:14;;;;;;;43.30;36.10;;;;;;;12.30;73.59;100224.36;103385;1279;139929;-61
2022/10/01 01:47:44;;;;;;;41.90;35.10;;;;;;;12.29;73.80;100228.14;103350;1278;109739;-63
2022/10/01 01:50:14;;;;;;;41.90;35.30;;;;;;;12.22;74.06;100228.90;103341;1281;99375;-59
2022/10/01 01:52:42;;;;;;;43.00;35.70;;;;;;;12.18;74.06;100230.48;103148;1281;139209;-62
2022/10/01 01:55:10;;;;;;;43.70;35.40;;;;;;;12.16;74.14;100235.53;103243;1279;95263;-59
2022/10/01 01:57:42;;;;;;;40.30;33.00;;;;;;;12.10;74.13;100237.02;103539;1280;139183;-60
2022/10/01 02:00:13;;;;;;;40.20;33.40;;;;;;;12.06;74.30;100235.52;103292;1279;109697;-61
2022/10/01 02:02:48;;;;;;;44.70;36.20;;;;;;;11.96;74.31;100231.60;103180;1280;142780;-62
2022/10/01 02:05:22;;;;;;;41.00;33.50;;;;;;;11.92;74.79;100230.31;103212;1281;108910;-61
2022/10/01 02:08:12;;;;;;;40.50;33.50;;;;;;;11.91;74.88;100238.71;103414;1280;95321;-61
2022/10/01 02:10:40;;;;;;;39.60;33.30;;;;;;;11.93;75.19;100244.33;103129;1281;139271;-60
2022/10/01 02:13:14;;;;;;;38.50;31.70;;;;;;;11.95;74.99;100243.55;103235;1281;110195;-61
2022/10/01 02:15:54;;;;;;;38.40;31.30;;;;;;;11.93;75.07;100243.23;103149;1280;140373;-62
2022/10/01 02:18:39;;;;;;;38.30;31.50;;;;;;;11.95;75.20;100244.61;103214;1281;107250;-64
2022/10/01 02:21:30;;;;;;;37.70;29.90;;;;;;;12.03;74.68;100240.62;103180;1279;138882;-63
2022/10/01 02:24:26;;;;;;;38.20;29.20;;;;;;;12.07;74.74;100242.44;103531;1280;96469;-61
2022/10/01 02:26:56;;;;;;;35.00;28.50;;;;;;;12.10;74.60;100248.73;103120;1278;139348;-62
2022/10/01 02:29:24;;;;;;;36.10;29.20;;;;;;;12.15;74.17;100244.80;103322;1279;99668;-61
2022/10/01 02:31:55;;;;;;;37.20;28.30;;;;;;;12.19;73.89;100238.97;103270;1281;108916;-63
2022/10/01 02:34:28;;;;;;;34.00;26.70;;;;;;;12.21;73.77;100235.89;103064;1280;139774;-61
2022/10/01 02:36:59;;;;;;;32.60;26.20;;;;;;;12.23;73.78;100229.25;103154;1281;95276;-62
2022/10/01 02:39:31;;;;;;;33.70;27.00;;;;;;;12.22;73.41;100225.88;103171;1278;139167;-61
2022/10/01 02:42:00;;;;;;;33.10;26.90;;;;;;;12.21;73.27;100223.24;103283;1281;99970;-61
2022/10/01 02:44:36;;;;;;;33.00;26.00;;;;;;;12.18;73.33;100213.55;103321;1281;108815;-61
2022/10/01 02:47:10;;;;;;;32.00;25.00;;;;;;;12.12;73.52;100206.67;103306;1281;96090;-62
2022/10/01 02:49:40;;;;;;;32.10;25.10;;;;;;;12.08;73.59;100203.97;103444;1281;96171;-63
2022/10/01 02:52:15;;;;;;;31.40;25.80;;;;;;;12.09;73.80;100205.36;103279;1281;140185;-63
2022/10/01 02:55:02;;;;;;;32.30;26.70;;;;;;;12.09;73.99;100205.37;103315;1281;99535;-62
2022/10/01 02:57:31;;;;;;;31.70;25.80;;;;;;;12.08;73.90;100202.20;103114;1280;139063;-61
2022/10/01 03:00:05;;;;;;;30.80;24.30;;;;;;;11.97;74.13;100201.32;103338;1280;95664;-62
2022/10/01 03:02:33;;;;;;;34.30;25.60;;;;;;;11.88;74.54;100197.33;102986;1284;96593;-62
2022/10/01 03:05:02;;;;;;;32.10;25.30;;;;;;;11.86;74.61;100196.17;103499;1278;108632;-60
2022/10/01 03:07:34;;;;;;;32.20;27.10;;;;;;;11.80;74.86;100192.11;103408;1277;98513;-61
2022/10/01 03:10:07;;;;;;;33.70;26.40;;;;;;;11.72;75.12;100187.58;103164;1278;139632;-62
2022/10/01 03:12:36;;;;;;;30.60;24.50;;;;;;;11.70;75.19;100180.52;103192;1281;95685;-61
2022/10/01 03:15:05;;;;;;;28.20;23.30;;;;;;;11.76;75.17;100177.84;103399;1281;139864;-63
2022/10/01 03:17:36;;;;;;;30.00;24.20;;;;;;;11.84;74.95;100177.54;103304;1280;109767;-62
2022/10/01 03:20:05;;;;;;;32.70;26.00;;;;;;;11.85;74.63;100177.52;103372;1281;99502;-62
2022/10/01 03:22:33;;;;;;;31.80;25.20;;;;;;;11.80;74.65;100176.27;103248;1281;138624;-62
2022/10/01 03:25:01;;;;;;;30.50;23.80;;;;;;;11.81;74.84;100171.44;103249;1278;95247;-62
2022/10/01 03:27:29;;;;;;;29.40;24.30;;;;;;;11.84;74.61;100163.84;103093;1278;139435;-60
2022/10/01 03:29:57;;;;;;;31.40;25.60;;;;;;;11.87;74.34;100163.40;103279;1278;109627;-62
2022/10/01 03:32:25;;;;;;;30.90;25.90;;;;;;;11.86;74.24;100168.41;103233;1278;99363;-61
2022/10/01 03:34:53;;;;;;;29.60;23.50;;;;;;;11.86;74.10;100169.11;103170;1277;139292;-61
2022/10/01 03:37:21;;;;;;;28.60;23.30;;;;;;;11.89;74.08;100172.92;103294;1281;95276;-61
2022/10/01 03:39:49;;;;;;;29.90;24.70;;;;;;;11.91;73.61;100175.16;103173;1281;139409;-63
2022/10/01 03:42:16;;;;;;;30.30;24.70;;;;;;;11.90;73.54;100177.52;103315;1279;109343;-61
2022/10/01 03:44:44;;;;;;;32.40;24.70;;;;;;;11.86;73.50;100182.98;103205;1278;140174;-63
2022/10/01 03:47:13;;;;;;;27.50;22.30;;;;;;;11.84;73.67;100189.10;103291;1280;108347;-61
2022/10/01 03:49:40;;;;;;;29.50;23.00;;;;;;;11.83;73.70;100195.87;103372;1279;95588;-62
2022/10/01 03:52:08;;;;;;;29.30;24.20;;;;;;;11.84;73.83;100198.52;103125;1280;138948;-60
2022/10/01 03:54:38;;;;;;;29.00;24.00;;;;;;;11.83;73.51;100200.00;103293;1278;109640;-62
2022/10/01 03:57:06;;;;;;;30.80;24.50;;;;;;;11.73;73.51;100201.60;103102;1279;139810;-62
2022/10/01 03:59:35;;;;;;;28.30;23.60;;;;;;;11.56;73.50;100202.16;103233;1277;109084;-64
2022/10/01 04:02:02;;;;;;;30.70;24.80;;;;;;;11.46;73.85;100202.85;103242;1279;95515;-61
2022/10/01 04:04:30;;;;;;;32.00;25.50;;;;;;;11.45;73.82;100203.24;103058;1280;138577;-60
2022/10/01 04:06:58;;;;;;;30.00;24.30;;;;;;;11.42;73.89;100204.02;103243;1278;110309;-62
2022/10/01 04:09:26;;;;;;;30.40;25.60;;;;;;;11.44;73.66;100202.58;103083;1281;139410;-61
2022/10/01 04:11:54;;;;;;;32.70;25.20;;;;;;;11.41;73.47;100196.24;103324;1281;108464;-62
2022/10/01 04:14:22;;;;;;;34.10;27.50;;;;;;;11.38;73.50;100196.70;103322;1281;95241;-61
2022/10/01 04:16:51;;;;;;;38.50;32.50;;;;;;;11.28;73.27;100197.92;103202;1279;138800;-61
2022/10/01 04:19:19;;;;;;;42.90;37.70;;;;;;;11.09;73.33;100201.01;103320;1281;109871;-61
2022/10/01 04:21:47;;;;;;;38.40;33.90;;;;;;;10.95;73.80;100203.06;103451;1278;139268;-61
2022/10/01 04:24:15;;;;;;;34.60;27.60;;;;;;;10.84;74.21;100199.98;103160;1279;109005;-61
2022/10/01 04:26:43;;;;;;;35.20;28.70;;;;;;;10.79;74.32;100194.14;103182;1279;139627;-62
2022/10/01 04:29:11;;;;;;;32.60;26.10;;;;;;;10.77;74.50;100196.14;103254;1281;95568;-61
2022/10/01 04:31:39;;;;;;;34.20;26.50;;;;;;;10.82;74.46;100192.41;103248;1281;109910;-61
2022/10/01 04:34:07;;;;;;;40.60;28.50;;;;;;;10.87;74.14;100191.20;103138;1278;139282;-65
2022/10/01 04:36:34;;;;;;;45.30;30.70;;;;;;;10.85;73.73;100189.66;103266;1278;108875;-60
2022/10/01 04:39:02;;;;;;;44.20;28.80;;;;;;;10.75;73.72;100188.03;103156;1279;139222;-62
2022/10/01 04:41:31;;;;;;;38.70;27.70;;;;;;;10.66;74.07;100184.40;103280;1278;96112;-64
2022/10/01 04:43:59;;;;;;;41.00;28.30;;;;;;;10.66;74.34;100184.05;103351;1279;109782;-61
2022/10/01 04:46:29;;;;;;;41.40;28.90;;;;;;;10.66;74.21;100183.48;103158;1280;139605;-63
2022/10/01 04:48:57;;;;;;;42.60;30.10;;;;;;;10.61;73.87;100183.31;103320;1278;109053;-62
2022/10/01 04:51:25;;;;;;;38.90;28.30;;;;;;;10.57;74.03;100181.13;103170;1278;138676;-61
2022/10/01 04:53:53;;;;;;;37.70;27.10;;;;;;;10.57;73.60;100183.41;103148;1279;95335;-63
2022/10/01 04:56:21;;;;;;;37.00;26.70;;;;;;;10.57;73.08;100184.84;103232;1278;109791;-63
2022/10/01 04:58:49;;;;;;;38.40;27.70;;;;;;;10.56;72.93;100187.18;103216;1281;139326;-61
2022/10/01 05:01:16;;;;;;;39.80;28.70;;;;;;;10.50;72.92;100191.95;103341;1278;109065;-61
2022/10/01 05:03:46;;;;;;;39.10;28.10;;;;;;;10.38;73.03;100195.86;103234;1278;139307;-62
2022/10/01 05:06:14;;;;;;;38.00;28.20;;;;;;;10.28;73.43;100193.99;103214;1281;95223;-62
2022/10/01 05:08:42;;;;;;;36.40;26.20;;;;;;;10.27;73.71;100194.16;103158;1279;139296;-62
2022/10/01 05:11:10;;;;;;;37.40;27.40;;;;;;;10.32;73.65;100196.19;103292;1278;99484;-61
2022/10/01 05:13:38;;;;;;;40.20;28.50;;;;;;;10.35;73.43;100197.36;103208;1278;108801;-64
2022/10/01 05:16:07;;;;;;;37.80;27.60;;;;;;;10.35;72.96;100196.64;103117;1278;139031;-62
2022/10/01 05:18:35;;;;;;;36.90;27.00;;;;;;;10.31;73.27;100193.02;103330;1278;95271;-57
2022/10/01 05:21:04;;;;;;;38.80;28.10;;;;;;;10.23;73.26;100193.43;103254;1280;139018;-62
2022/10/01 05:23:33;;;;;;;39.00;28.70;;;;;;;10.14;73.43;100197.73;103281;1278;99527;-61
2022/10/01 05:26:03;;;;;;;42.70;30.80;;;;;;;10.10;73.60;100201.76;103241;1281;108879;-63
2022/10/01 05:28:31;;;;;;;39.10;29.40;;;;;;;10.10;73.78;100200.13;103264;1280;139222;-62
2022/10/01 05:31:00;;;;;;;39.20;28.60;;;;;;;10.13;73.66;100199.17;103291;1281;95242;-61
2022/10/01 05:33:29;;;;;;;41.20;28.60;;;;;;;10.15;73.54;100197.54;103342;1279;139194;-61
2022/10/01 05:35:57;;;;;;;40.50;29.50;;;;;;;10.13;73.68;100199.17;103477;1280;98384;-61
2022/10/01 05:38:25;;;;;;;39.20;28.40;;;;;;;10.11;73.85;100199.08;103230;1279;107690;-63
2022/10/01 05:40:53;;;;;;;40.00;29.50;;;;;;;10.13;73.86;100202.91;103247;1281;139704;-61
2022/10/01 05:43:21;;;;;;;40.40;28.90;;;;;;;10.15;73.92;100198.95;103337;1280;95237;-63
2022/10/01 05:45:49;;;;;;;40.40;30.50;;;;;;;10.16;73.78;100197.32;103097;1277;139100;-60
2022/10/01 05:48:18;;;;;;;42.10;30.10;;;;;;;10.14;73.74;100201.13;103336;1278;99247;-59
2022/10/01 05:50:45;;;;;;;41.60;29.80;;;;;;;10.07;73.97;100196.89;103133;1279;139130;-62
2022/10/01 05:53:14;;;;;;;38.00;28.10;;;;;;;10.02;74.14;100195.41;103256;1279;95249;-60
2022/10/01 05:55:43;;;;;;;37.70;27.90;;;;;;;10.00;74.34;100200.27;103309;1280;96147;-64
2022/10/01 05:58:12;;;;;;;39.50;28.80;;;;;;;10.02;74.68;100198.77;103186;1279;138966;-64
2022/10/01 06:00:41;;;;;;;38.30;29.20;;;;;;;10.07;74.76;100199.37;103402;1279;99422;-64
2022/10/01 06:03:11;;;;;;;38.80;29.10;;;;;;;10.09;74.80;100197.90;103294;1278;139010;-61
2022/10/01 06:05:43;;;;;;;37.60;28.80;;;;;;;10.10;75.33;100200.13;103268;1279;95264;-61
2022/10/01 06:08:11;;;;;;;37.80;28.20;;;;;;;10.14;75.70;100198.81;103212;1278;95569;-61
2022/10/01 06:10:40;;;;;;;35.10;27.30;;;;;;;10.22;75.71;100200.54;103122;1278;139686;-61
2022/10/01 06:13:08;;;;;;;34.00;27.00;;;;;;;10.32;75.75;100199.37;103526;1279;99501;-61
2022/10/01 06:15:37;;;;;;;33.80;27.50;;;;;;;10.47;75.69;100198.09;103208;1279;139294;-62
2022/10/01 06:18:07;;;;;;;33.30;26.90;;;;;;;10.54;75.78;100199.13;103388;1279;95321;-63
2022/10/01 06:20:36;;;;;;;33.00;26.60;;;;;;;10.59;76.02;100194.92;103344;1279;138635;-61
2022/10/01 06:23:08;;;;;;;32.60;25.40;;;;;;;10.72;75.67;100192.17;103415;1279;109633;-62
2022/10/01 06:25:38;;;;;;;32.60;25.60;;;;;;;10.81;75.65;100185.53;103417;1279;99533;-64
2022/10/01 06:28:10;;;;;;;33.50;27.20;;;;;;;10.82;75.86;100187.98;103263;1278;138992;-60
2022/10/01 06:30:38;;;;;;;34.90;27.00;;;;;;;10.77;76.23;100187.63;103310;1279;96135;-63
2022/10/01 06:33:12;;;;;;;32.90;26.30;;;;;;;10.71;76.71;100185.31;103470;1278;139144;-62
2022/10/01 06:35:48;;;;;;;30.80;25.60;;;;;;;10.78;77.17;100185.46;103282;1278;109723;-63
2022/10/01 06:38:19;;;;;;;31.10;26.10;;;;;;;10.85;77.18;100183.13;103277;1279;99441;-61
2022/10/01 06:40:52;;;;;;;30.30;25.30;;;;;;;10.96;77.54;100184.55;103300;1279;139124;-60
2022/10/01 06:43:21;;;;;;;32.70;25.60;;;;;;;11.15;77.20;100178.60;103329;1279;95761;-62
2022/10/01 06:45:49;;;;;;;34.10;27.80;;;;;;;11.25;76.96;100174.92;103211;1280;139506;-63
2022/10/01 06:48:18;;;;;;;35.30;27.40;;;;;;;11.25;77.02;100177.92;103303;1278;109120;-62
2022/10/01 06:50:49;;;;;;;34.30;27.60;;;;;;;11.23;77.14;100173.38;103186;1279;139619;-63
2022/10/01 06:53:17;;;;;;;33.80;27.30;;;;;;;11.26;77.47;100177.90;103294;1278;107864;-63
2022/10/01 06:55:45;;;;;;;33.30;26.70;;;;;;;11.34;77.68;100172.13;103282;1279;96439;-63
2022/10/01 06:58:16;;;;;;;33.10;26.80;;;;;;;11.51;77.73;100174.06;103181;1279;139285;-61
2022/10/01 07:00:44;;;;;;;33.70;26.10;;;;;;;11.71;77.02;100174.79;103355;1278;109637;-61
2022/10/01 07:03:19;;;;;;;35.70;27.40;;;;;;;11.84;76.68;100169.20;103222;1279;139649;-63
2022/10/01 07:05:48;;;;;;;33.20;26.30;;;;;;;11.86;76.38;100168.93;103372;1279;109147;-62
2022/10/01 07:08:17;;;;;;;32.10;26.20;;;;;;;11.84;76.80;100169.55;103218;1278;95251;-62
2022/10/01 07:10:45;;;;;;;30.10;23.80;;;;;;;11.95;77.12;100173.08;103110;1278;139242;-63
2022/10/01 07:13:19;;;;;;;31.40;23.10;;;;;;;12.08;76.48;100173.88;103428;1278;109766;-61
2022/10/01 07:15:47;;;;;;;28.10;22.40;;;;;;;12.04;76.37;100171.88;103196;1278;139333;-62
2022/10/01 07:18:15;;;;;;;29.40;23.40;;;;;;;12.07;76.68;100165.39;103191;1279;109058;-62
2022/10/01 07:20:43;;;;;;;31.50;24.10;;;;;;;12.19;76.94;100162.10;103169;1278;142546;-63
2022/10/01 07:23:13;;;;;;;28.80;22.50;;;;;;;12.24;76.52;100162.46;103307;1279;95306;-64
2022/10/01 07:25:42;;;;;;;26.70;21.00;;;;;;;12.20;75.67;100161.86;103532;1278;107887;-64
2022/10/01 07:28:16;;;;;;;27.00;20.90;;;;;;;12.13;75.65;100160.36;103125;1278;139926;-64
2022/10/01 07:30:56;;;;;;;27.10;22.20;;;;;;;12.06;75.68;100166.50;103400;1278;107832;-64
2022/10/01 07:33:24;;;;;;;26.50;20.90;;;;;;;12.04;75.93;100171.00;103101;1281;138851;-61
2022/10/01 07:35:53;;;;;;;26.90;21.60;;;;;;;12.04;75.85;100170.83;103344;1279;96429;-62
2022/10/01 07:38:20;;;;;;;24.90;19.20;;;;;;;12.10;76.28;100167.41;103265;1278;109637;-62
2022/10/01 07:40:53;;;;;;;27.10;20.10;;;;;;;12.16;75.96;100169.86;103152;1278;139419;-61
2022/10/01 07:43:21;;;;;;;26.40;21.20;;;;;;;12.27;75.78;100165.70;103639;1279;108951;-65
2022/10/01 07:45:53;;;;;;;23.50;17.90;;;;;;;12.41;75.75;100162.73;103244;1278;140433;-64
2022/10/01 07:48:21;;;;;;;21.40;15.90;;;;;;;12.46;75.08;100165.55;103660;1279;96166;-64
2022/10/01 07:50:50;;;;;;;19.60;14.20;;;;;;;12.46;74.32;100165.73;103120;1278;139391;-64
2022/10/01 07:53:18;;;;;;;21.60;16.70;;;;;;;12.41;73.70;100166.08;103326;1279;99426;-62
2022/10/01 07:55:46;;;;;;;20.60;16.40;;;;;;;12.45;74.27;100164.18;103099;1278;108885;-62
2022/10/01 07:58:14;;;;;;;21.10;16.60;;;;;;;12.52;74.27;100170.98;103195;1277;139283;-64
2022/10/01 08:00:42;;;;;;;20.70;15.70;;;;;;;12.68;74.11;100177.36;103245;1279;96080;-64
2022/10/01 08:03:12;;;;;;;22.40;16.80;;;;;;;12.78;73.90;100177.30;103169;1277;139782;-64
2022/10/01 08:05:42;;;;;;;20.00;15.20;;;;;;;12.96;73.53;100179.28;103392;1279;99824;-65
2022/10/01 08:08:10;;;;;;;19.30;15.10;;;;;;;13.00;72.40;100182.14;103352;1281;108969;-61
2022/10/01 08:10:38;;;;;;;20.20;14.90;;;;;;;13.00;72.13;100175.91;103137;1278;139817;-64
2022/10/01 08:13:13;;;;;;;20.00;15.40;;;;;;;13.14;71.96;100172.52;103248;1279;95266;-62
2022/10/01 08:15:43;;;;;;;20.40;16.00;;;;;;;13.15;70.65;100171.78;103599;1278;138289;-63
2022/10/01 08:18:12;;;;;;;21.60;16.40;;;;;;;13.14;71.14;100168.41;103248;1278;99483;-63
2022/10/01 08:20:40;;;;;;;20.60;15.50;;;;;;;13.25;71.78;100164.42;103124;1279;139383;-63
2022/10/01 08:23:10;;;;;;;20.00;15.30;;;;;;;13.29;71.52;100161.22;103226;1279;95740;-63
2022/10/01 08:25:39;;;;;;;20.30;15.70;;;;;;;13.33;71.93;100161.56;103525;1278;95250;-62
2022/10/01 08:28:09;;;;;;;21.40;16.10;;;;;;;13.33;71.12;100158.73;103109;1278;138646;-62
2022/10/01 08:30:39;;;;;;;22.10;17.00;;;;;;;13.28;71.48;100155.01;103215;1278;98440;-64
2022/10/01 08:33:10;;;;;;;21.70;16.40;;;;;;;13.32;71.75;100154.85;103232;1278;139771;-63
2022/10/01 08:35:39;;;;;;;21.40;16.70;;;;;;;13.34;71.83;100154.92;103534;1277;95252;-62
2022/10/01 08:38:08;;;;;;;22.80;17.20;;;;;;;13.37;71.51;100151.80;103624;1277;95753;-62
2022/10/01 08:41:21;;;;;;;21.50;16.50;;;;;;;13.39;71.11;100150.84;103151;1277;138556;-64
2022/10/01 08:43:52;;;;;;;21.80;17.30;;;;;;;13.42;70.71;100140.75;102919;1281;99390;-65
2022/10/01 08:46:25;;;;;;;21.80;16.80;;;;;;;13.51;70.78;100134.29;102991;1278;139161;-64
2022/10/01 08:48:53;;;;;;;20.60;16.50;;;;;;;13.47;70.75;100136.23;103103;1279;95320;-63
2022/10/01 08:51:30;;;;;;;22.10;16.90;;;;;;;13.41;70.55;100143.98;103142;1278;138964;-65
2022/10/01 08:54:35;;;;;;;22.60;17.70;;;;;;;13.33;70.41;100141.42;103364;1279;110305;-63
2022/10/01 08:57:10;;;;;;;23.40;17.20;;;;;;;13.25;70.68;100140.34;102299;1281;139516;-64
2022/10/01 08:59:51;;;;;;;23.30;16.60;;;;;;;13.23;71.12;100132.77;103084;1279;108813;-64
2022/10/01 09:02:24;;;;;;;21.70;15.90;;;;;;;13.15;70.87;100124.31;103763;1279;96744;-65
2022/10/01 09:04:57;;;;;;;20.30;15.70;;;;;;;13.17;70.71;100123.72;103076;1279;139396;-63
2022/10/01 09:07:52;;;;;;;22.40;16.70;;;;;;;13.15;70.93;100125.21;102947;1278;109711;-64
2022/10/01 09:10:44;;;;;;;20.70;15.40;;;;;;;13.14;71.29;100123.33;102684;1280;141318;-63
2022/10/01 09:13:52;;;;;;;17.60;12.80;;;;;;;13.14;71.37;100124.02;102967;1277;107996;-63
2022/10/01 09:16:46;;;;;;;17.20;13.40;;;;;;;13.05;70.40;100116.36;102945;1277;139372;-66
2022/10/01 09:19:19;;;;;;;18.60;13.60;;;;;;;12.98;70.69;100112.20;102477;1281;96755;-64
2022/10/01 09:22:02;;;;;;;18.40;13.40;;;;;;;12.92;71.00;100111.76;103054;1278;138837;-65
2022/10/01 09:24:43;;;;;;;16.90;12.50;;;;;;;12.94;71.36;100110.39;103467;1277;99394;-65
2022/10/01 09:27:36;;;;;;;16.10;11.70;;;;;;;12.97;71.19;100111.88;103191;1277;139898;-64
2022/10/01 09:30:06;;;;;;;18.00;13.10;;;;;;;12.88;70.70;100107.98;103072;1277;95135;-65
2022/10/01 09:33:23;;;;;;;19.00;13.90;;;;;;;12.79;71.30;100104.42;103225;1278;96203;-63
2022/10/01 09:36:04;;;;;;;32.70;23.90;;;;;;;12.76;72.09;100105.80;102782;1278;109697;-64
2022/10/01 09:38:35;;;;;;;17.40;13.00;;;;;;;12.78;71.90;100107.14;103152;1279;99634;-62
2022/10/01 09:41:03;;;;;;;17.40;13.50;;;;;;;12.75;71.71;100104.41;103271;1278;108844;-64
2022/10/01 09:43:33;;;;;;;19.20;14.40;;;;;;;12.75;71.98;100103.36;103297;1279;96685;-63
2022/10/01 09:46:05;;;;;;;19.50;14.10;;;;;;;12.76;71.96;100103.31;103116;1279;139219;-64
2022/10/01 09:48:41;;;;;;;20.80;14.90;;;;;;;12.78;72.12;100103.77;103451;1279;109863;-63
2022/10/01 09:51:11;;;;;;;19.60;14.10;;;;;;;12.83;72.18;100101.59;103005;1279;139619;-64
2022/10/01 09:54:03;;;;;;;20.00;15.00;;;;;;;12.94;72.01;100097.94;103204;1279;108820;-64
2022/10/01 09:56:41;;;;;;;18.30;13.50;;;;;;;13.29;71.94;100096.11;103268;1279;95744;-65
2022/10/01 09:59:35;;;;;;;18.50;13.00;;;;;;;14.93;69.28;100086.64;103618;1278;95305;-61
2022/10/01 10:02:14;;;;;;;17.00;12.80;;;;;;;15.51;64.36;100080.95;103112;1278;109702;-62
2022/10/01 10:04:42;;;;;;;25.10;18.90;;;;;;;15.11;65.04;100078.70;103262;1277;141757;-62
2022/10/01 10:07:17;;;;;;;15.40;11.70;;;;;;;14.83;65.58;100075.95;103235;1277;109127;-64
2022/10/01 10:09:45;;;;;;;16.30;11.50;;;;;;;14.57;66.04;100075.04;103403;1279;138591;-64
2022/10/01 10:12:30;;;;;;;13.00;9.50;;;;;;;14.39;66.53;100079.64;103326;1279;96055;-63
2022/10/01 10:15:06;;;;;;;12.60;9.10;;;;;;;14.26;66.49;100083.65;103569;1279;139314;-62
2022/10/01 10:17:36;;;;;;;13.60;9.80;;;;;;;14.13;66.21;100081.60;103384;1278;98861;-64
2022/10/01 10:20:11;;;;;;;14.80;10.70;;;;;;;13.94;66.69;100082.98;103199;1277;108905;-64
2022/10/01 10:22:38;;;;;;;14.50;10.90;;;;;;;13.77;67.56;100080.70;103123;1278;139138;-62
2022/10/01 10:25:16;;;;;;;14.60;10.80;;;;;;;13.65;67.94;100078.23;103191;1278;95245;-65
2022/10/01 10:27:54;;;;;;;15.40;11.50;;;;;;;13.54;68.31;100072.27;103181;1279;139216;-64
2022/10/01 10:30:23;;;;;;;16.80;11.80;;;;;;;13.48;68.98;100065.39;103378;1279;99489;-65
2022/10/01 10:33:03;;;;;;;16.00;11.80;;;;;;;13.39;68.99;100060.23;103112;1279;139365;-64
2022/10/01 10:35:31;;;;;;;16.20;11.90;;;;;;;13.32;69.56;100051.58;103113;1278;96014;-65
2022/10/01 10:38:01;;;;;;;16.10;11.60;;;;;;;13.31;69.67;100049.51;103214;1278;95397;-64
2022/10/01 10:40:43;;;;;;;15.10;11.10;;;;;;;13.27;69.88;100046.13;103039;1279;139742;-64
2022/10/01 10:43:24;;;;;;;15.40;11.40;;;;;;;13.23;70.02;100039.89;103385;1278;98440;-66
2022/10/01 10:45:54;;;;;;;15.80;11.80;;;;;;;13.14;70.02;100035.80;103201;1278;138751;-65
2022/10/01 10:48:31;;;;;;;19.40;14.40;;;;;;;13.02;70.28;100031.48;103431;1277;96018;-65
2022/10/01 10:51:01;;;;;;;16.30;12.10;;;;;;;12.96;70.67;100022.46;102939;1277;139717;-64
2022/10/01 10:53:42;;;;;;;17.00;11.70;;;;;;;12.94;71.17;100024.34;103629;1278;108962;-64
2022/10/01 10:56:22;;;;;;;14.90;11.30;;;;;;;13.02;71.32;100017.95;103233;1279;99399;-64
2022/10/01 10:58:52;;;;;;;15.50;12.00;;;;;;;13.14;70.97;100015.30;103121;1277;139190;-64
2022/10/01 11:01:27;;;;;;;14.00;10.50;;;;;;;13.28;70.62;100013.09;103271;1277;95590;-62
2022/10/01 11:03:58;;;;;;;13.50;10.20;;;;;;;13.44;70.22;100009.03;103475;1277;138385;-60
2022/10/01 11:06:27;;;;;;;13.70;9.00;;;;;;;13.53;69.75;100006.11;103508;1278;109845;-64
2022/10/01 11:09:09;;;;;;;12.10;9.20;;;;;;;13.57;69.56;100001.13;102994;1278;139293;-64
2022/10/01 11:12:10;;;;;;;13.30;9.40;;;;;;;13.65;69.55;99994.52;103016;1279;108868;-64
2022/10/01 11:14:58;;;;;;;14.10;9.10;;;;;;;13.71;68.54;99986.75;103071;1279;138544;-66
2022/10/01 11:18:00;;;;;;;11.70;8.50;;;;;;;13.70;68.20;99980.76;103514;1278;95715;-65
2022/10/01 11:20:35;;;;;;;12.70;8.90;;;;;;;13.70;68.46;99979.52;103241;1278;109697;-64
2022/10/01 11:23:32;;;;;;;12.70;9.30;;;;;;;13.77;68.89;99978.80;103296;1278;99713;-66